EFSI/SJY METAR and TAF weather

Enter ICAO airport designator
Station Type Date Time Source
EFSI METAR 2019/08/19 23:20 UTC NOAA

EFSI 192320Z AUTO 17007KT 130V210 CAVOK 13/12 Q1008


Station Type Date Time Source
EFSI Decoded METAR 2019/08/19 23:20 UTC NOAA

Seinajoki-Ilmajok, Finland (EFSI) 62-41-37N 022-49-55E
Aug 19, 2019 - 07:20 PM EDT / 2019.08.19 2320 UTC
Wind: from the S (170 degrees) at 8 MPH (7 KT) (direction variable):0
Visibility: greater than 7 mile(s):0
Temperature: 55 F (13 C)
Dew Point: 53 F (12 C)
Relative Humidity: 93%
Pressure (altimeter): 29.77 in. Hg (1008 hPa)
ob: EFSI 192320Z AUTO 17007KT 130V210 CAVOK 13/12 Q1008
cycle: 23

Station Type Date Time Source
EFSI TAF 2012/03/06 09:42 UTC NOAA

TAF EFSI 060830Z 0609/0621 12003KT CAVOK

Example: see airport list